Time;durP1;ratioP1;P1;durP2;ratioP2;P2;SDS_P1;SDS_P2;PMS_P1;PMS_P2;Temp;Humidity;BMP_temperature;BMP_pressure;BME280_temperature;BME280_humidity;BME280_pressure;Samples;Min_cycle;Max_cycle;Signal;HPM_P1;HPM_P2
2021/04/07 00:01:39;;;;;;;10.77;6.50;;;14.30;47.40;;;;;;4882050;29;20123;-62
2021/04/07 00:04:05;;;;;;;13.70;6.72;;;14.20;49.00;;;;;;4865659;29;20033;-63
2021/04/07 00:06:35;;;;;;;12.98;5.63;;;14.10;49.70;;;;;;4883519;29;20103;-62
2021/04/07 00:09:02;;;;;;;11.70;5.68;;;14.20;49.70;;;;;;4882994;29;20045;-62
2021/04/07 00:11:28;;;;;;;15.95;6.20;;;14.10;49.90;;;;;;4864829;29;20107;-63
2021/04/07 00:13:54;;;;;;;15.57;7.03;;;14.20;50.40;;;;;;4883029;29;20041;-63
2021/04/07 00:16:21;;;;;;;11.93;6.55;;;14.20;50.50;;;;;;4884831;29;20409;-63
2021/04/07 00:18:47;;;;;;;13.02;7.05;;;14.30;50.40;;;;;;4882841;29;20046;-62
2021/04/07 00:21:13;;;;;;;12.63;6.10;;;14.30;50.40;;;;;;4883253;29;20040;-62
2021/04/07 00:23:38;;;;;;;11.02;4.88;;;14.30;50.00;;;;;;4883077;29;20040;-62
2021/04/07 00:26:04;;;;;;;11.77;5.15;;;14.40;49.40;;;;;;4886700;29;20112;-63
2021/04/07 00:28:30;;;;;;;13.30;5.55;;;14.40;49.20;;;;;;4870553;29;20132;-63
2021/04/07 00:30:57;;;;;;;10.18;4.40;;;14.40;49.30;;;;;;4885260;29;20385;-63
2021/04/07 00:33:23;;;;;;;8.90;4.57;;;14.40;49.20;;;;;;4855032;29;20044;-63
2021/04/07 00:35:49;;;;;;;9.80;4.70;;;14.50;49.10;;;;;;4871168;29;20501;-63
2021/04/07 00:38:16;;;;;;;9.68;4.05;;;14.50;48.70;;;;;;4885505;29;20044;-63
2021/04/07 00:40:42;;;;;;;9.20;4.57;;;14.60;49.30;;;;;;4885928;29;20523;-63
2021/04/07 00:43:08;;;;;;;9.18;4.63;;;14.60;48.80;;;;;;4887751;29;20068;-64
2021/04/07 00:45:34;;;;;;;7.35;4.20;;;14.60;48.70;;;;;;4887296;29;20045;-63
2021/04/07 00:48:00;;;;;;;8.85;4.10;;;14.60;48.50;;;;;;4886271;29;20047;-63
2021/04/07 00:50:28;;;;;;;8.98;3.40;;;14.50;48.40;;;;;;4885227;29;20036;-63
2021/04/07 00:52:54;;;;;;;10.45;3.90;;;14.50;48.60;;;;;;4886214;29;20037;-63
2021/04/07 00:55:26;;;;;;;7.68;3.13;;;14.50;48.50;;;;;;4887778;29;20044;-63
2021/04/07 00:57:54;;;;;;;7.05;3.38;;;14.50;48.30;;;;;;4867859;29;20052;-63
2021/04/07 01:00:21;;;;;;;6.53;2.85;;;14.50;48.30;;;;;;4885042;29;20405;-63
2021/04/07 01:02:52;;;;;;;7.38;3.03;;;14.40;47.80;;;;;;4885682;29;20048;-63
2021/04/07 01:05:18;;;;;;;5.93;2.15;;;14.30;48.00;;;;;;4885941;29;20057;-63
2021/04/07 01:07:44;;;;;;;6.22;2.70;;;14.00;47.40;;;;;;4870275;29;20942;-63
2021/04/07 01:10:11;;;;;;;5.13;2.30;;;13.60;48.00;;;;;;4886111;29;20253;-63
2021/04/07 01:12:38;;;;;;;6.07;2.92;;;13.40;49.00;;;;;;4888301;29;21014;-63
2021/04/07 01:15:06;;;;;;;6.22;2.35;;;13.10;49.00;;;;;;4870832;29;20058;-63
2021/04/07 01:17:32;;;;;;;7.50;2.75;;;12.90;49.90;;;;;;4884845;29;20127;-63
2021/04/07 01:19:58;;;;;;;6.50;2.30;;;13.00;50.10;;;;;;4884984;29;20119;-63
2021/04/07 01:22:25;;;;;;;5.78;2.17;;;13.10;49.50;;;;;;4868752;29;20116;-63
2021/04/07 01:24:51;;;;;;;5.90;2.13;;;13.00;49.50;;;;;;4886292;29;20100;-63
2021/04/07 01:27:17;;;;;;;5.70;2.20;;;13.00;49.80;;;;;;4868466;29;20068;-62
2021/04/07 01:29:44;;;;;;;5.93;2.35;;;13.20;50.10;;;;;;4885133;29;20050;-62
2021/04/07 01:32:10;;;;;;;5.70;2.30;;;13.40;49.80;;;;;;4885810;29;20045;-63
2021/04/07 01:34:42;;;;;;;8.05;2.30;;;13.60;49.60;;;;;;4886745;29;20045;-63
2021/04/07 01:37:10;;;;;;;7.18;2.53;;;13.80;49.40;;;;;;4886693;29;20477;-63
2021/04/07 01:39:36;;;;;;;4.60;2.38;;;13.90;49.00;;;;;;4885682;29;20133;-63
2021/04/07 01:42:03;;;;;;;6.22;2.83;;;14.10;48.80;;;;;;4867768;29;20044;-63
2021/04/07 01:44:30;;;;;;;7.63;2.42;;;14.10;48.50;;;;;;4886000;29;20494;-63
2021/04/07 01:46:56;;;;;;;4.55;2.30;;;14.20;48.70;;;;;;4885454;29;20079;-62
2021/04/07 01:49:24;;;;;;;4.72;2.17;;;14.20;48.70;;;;;;4883843;29;20096;-62
2021/04/07 01:51:50;;;;;;;4.18;2.03;;;14.20;48.80;;;;;;4885050;29;20039;-62
2021/04/07 01:54:16;;;;;;;5.60;2.35;;;14.20;49.00;;;;;;4886272;29;22229;-62
2021/04/07 01:56:49;;;;;;;5.90;2.08;;;14.10;48.50;;;;;;4867307;29;20049;-62
2021/04/07 01:59:17;;;;;;;6.40;2.42;;;13.80;49.00;;;;;;4884059;29;20492;-62
2021/04/07 02:01:43;;;;;;;5.28;2.22;;;13.60;49.50;;;;;;4884420;29;22196;-62
2021/04/07 02:04:09;;;;;;;5.88;2.15;;;13.70;50.30;;;;;;4867786;29;20041;-62
2021/04/07 02:06:35;;;;;;;4.13;2.03;;;13.70;49.60;;;;;;4867431;29;20037;-63
2021/04/07 02:09:03;;;;;;;4.15;1.73;;;13.70;49.10;;;;;;4884233;29;20040;-62
2021/04/07 02:11:28;;;;;;;4.78;1.30;;;13.60;49.20;;;;;;4885131;29;20037;-63
2021/04/07 02:13:54;;;;;;;4.32;1.77;;;13.50;48.00;;;;;;4868732;29;20052;-63
2021/04/07 02:16:20;;;;;;;3.67;1.70;;;13.20;48.20;;;;;;4884197;29;20055;-63
2021/04/07 02:18:46;;;;;;;4.53;1.42;;;12.90;48.80;;;;;;4884350;29;20404;-63
2021/04/07 02:21:11;;;;;;;3.85;1.50;;;12.80;50.10;;;;;;4866767;29;20424;-63
2021/04/07 02:23:38;;;;;;;7.03;1.85;;;12.70;50.30;;;;;;4884721;29;20053;-63
2021/04/07 02:26:08;;;;;;;2.70;1.30;;;12.60;50.20;;;;;;4868043;29;20135;-63
2021/04/07 02:28:35;;;;;;;4.70;1.25;;;12.60;50.80;;;;;;4885966;29;20408;-63
2021/04/07 02:31:01;;;;;;;2.97;1.05;;;12.70;50.40;;;;;;4869728;29;20116;-63
2021/04/07 02:33:27;;;;;;;4.78;1.30;;;12.60;50.10;;;;;;4885447;29;20397;-63
2021/04/07 02:35:52;;;;;;;2.88;1.23;;;12.50;49.40;;;;;;4884617;29;20127;-63
2021/04/07 02:38:19;;;;;;;2.70;1.15;;;12.00;49.50;;;;;;4884497;29;20036;-63
2021/04/07 02:40:45;;;;;;;2.92;0.80;;;11.80;50.50;;;;;;4866578;29;20041;-64
2021/04/07 02:43:11;;;;;;;3.25;1.00;;;11.80;50.90;;;;;;4884331;29;20045;-63
2021/04/07 02:45:36;;;;;;;2.42;0.90;;;11.70;51.40;;;;;;4885034;29;20071;-63
2021/04/07 02:48:02;;;;;;;3.40;1.00;;;11.60;51.40;;;;;;4866052;29;20044;-63
2021/04/07 02:50:28;;;;;;;2.97;1.00;;;11.50;52.50;;;;;;4884245;29;20053;-63
2021/04/07 02:52:54;;;;;;;2.13;0.98;;;11.70;53.00;;;;;;4848813;29;20037;-63
2021/04/07 02:55:21;;;;;;;2.97;1.23;;;12.00;52.00;;;;;;4882834;29;20424;-63
2021/04/07 02:57:47;;;;;;;2.85;0.77;;;12.00;51.50;;;;;;4866860;29;20037;-63
2021/04/07 03:00:14;;;;;;;3.80;0.98;;;12.00;51.30;;;;;;4883419;29;20040;-61
2021/04/07 03:02:40;;;;;;;2.55;0.80;;;12.10;51.60;;;;;;4883994;29;20446;-62
2021/04/07 03:05:07;;;;;;;4.03;1.20;;;12.30;51.80;;;;;;4866636;29;20072;-63
2021/04/07 03:07:38;;;;;;;2.75;0.90;;;12.50;51.70;;;;;;4866772;29;20052;-62
2021/04/07 03:10:05;;;;;;;2.97;0.95;;;12.40;50.80;;;;;;4884593;29;20494;-62
2021/04/07 03:12:31;;;;;;;2.92;0.70;;;12.30;51.00;;;;;;4882986;29;20045;-62
2021/04/07 03:14:56;;;;;;;2.17;0.80;;;12.30;50.10;;;;;;4884238;29;20048;-63
2021/04/07 03:17:24;;;;;;;1.38;0.52;;;12.10;50.30;;;;;;4885824;29;20044;-62
2021/04/07 03:19:50;;;;;;;2.53;0.98;;;12.00;50.60;;;;;;4884013;29;20401;-65
2021/04/07 03:22:15;;;;;;;2.95;1.05;;;11.90;51.20;;;;;;4866915;29;20045;-64
2021/04/07 03:24:43;;;;;;;1.58;0.60;;;12.00;51.30;;;;;;4883004;29;20040;-66
2021/04/07 03:27:09;;;;;;;2.88;1.00;;;12.10;50.60;;;;;;4884640;29;20096;-62
2021/04/07 03:29:35;;;;;;;1.85;0.70;;;12.00;50.80;;;;;;4883790;29;20048;-63
2021/04/07 03:32:01;;;;;;;2.28;1.02;;;11.90;51.30;;;;;;4865803;29;20040;-63
2021/04/07 03:34:27;;;;;;;1.42;0.50;;;11.90;51.40;;;;;;4865638;29;20037;-63
2021/04/07 03:36:55;;;;;;;3.30;0.60;;;12.00;51.00;;;;;;4882954;29;20106;-63
2021/04/07 03:39:21;;;;;;;1.33;0.65;;;12.00;51.20;;;;;;4883464;29;20048;-63
2021/04/07 03:41:46;;;;;;;0.98;0.50;;;12.00;51.40;;;;;;4865517;29;20485;-63
2021/04/07 03:44:12;;;;;;;1.63;0.55;;;12.20;51.70;;;;;;4883149;29;20036;-63
2021/04/07 03:46:38;;;;;;;2.30;0.57;;;12.30;51.30;;;;;;4866584;29;20045;-63
2021/04/07 03:49:04;;;;;;;2.75;0.77;;;12.30;51.10;;;;;;4853671;29;20437;-63
2021/04/07 03:51:31;;;;;;;2.00;0.40;;;12.20;51.10;;;;;;4864870;29;20457;-63
2021/04/07 03:53:58;;;;;;;2.20;0.57;;;12.20;51.00;;;;;;4861451;29;20045;-63
2021/04/07 03:56:24;;;;;;;1.65;0.60;;;12.20;50.80;;;;;;4867465;29;20085;-62
2021/04/07 03:58:50;;;;;;;2.30;0.40;;;12.20;50.90;;;;;;4865568;29;20049;-62
2021/04/07 04:01:18;;;;;;;1.42;0.68;;;12.20;51.00;;;;;;4883005;29;20060;-62
2021/04/07 04:03:43;;;;;;;1.27;0.50;;;12.20;50.90;;;;;;4884459;29;20037;-64
2021/04/07 04:06:09;;;;;;;2.00;0.50;;;12.30;51.10;;;;;;4884222;29;20416;-65
2021/04/07 04:08:35;;;;;;;1.30;0.45;;;12.20;50.90;;;;;;4882067;29;20523;-65
2021/04/07 04:11:01;;;;;;;1.30;0.40;;;12.20;51.10;;;;;;4864881;29;20059;-65
2021/04/07 04:13:26;;;;;;;1.92;0.82;;;12.30;50.70;;;;;;4865513;29;20089;-65
2021/04/07 04:15:52;;;;;;;2.50;0.73;;;12.30;50.60;;;;;;4883101;29;20123;-65
2021/04/07 04:18:18;;;;;;;1.75;0.60;;;12.30;50.40;;;;;;4882737;29;20060;-64
2021/04/07 04:20:44;;;;;;;1.95;0.73;;;12.00;50.90;;;;;;4881846;29;20041;-65
2021/04/07 04:23:09;;;;;;;1.98;0.65;;;12.10;51.10;;;;;;4883087;29;20045;-65
2021/04/07 04:25:35;;;;;;;2.55;0.70;;;12.00;50.70;;;;;;4884303;29;20074;-65
2021/04/07 04:28:01;;;;;;;4.00;0.80;;;11.90;50.90;;;;;;4882076;29;20044;-65
2021/04/07 04:30:27;;;;;;;3.22;0.63;;;11.90;51.30;;;;;;4882652;29;20050;-65
2021/04/07 04:32:53;;;;;;;4.05;0.80;;;12.00;51.50;;;;;;4882573;29;20040;-64
2021/04/07 04:35:19;;;;;;;2.60;0.68;;;11.80;50.00;;;;;;4883007;29;20059;-64
2021/04/07 04:37:46;;;;;;;3.33;0.80;;;10.90;50.30;;;;;;4882896;29;20041;-64
2021/04/07 04:40:13;;;;;;;3.22;1.00;;;9.90;51.90;;;;;;4881777;29;20457;-64
2021/04/07 04:42:39;;;;;;;4.43;0.68;;;9.10;53.70;;;;;;4883255;29;20041;-64
2021/04/07 04:45:07;;;;;;;2.58;1.20;;;8.40;55.40;;;;;;4883387;29;20044;-64
2021/04/07 04:47:33;;;;;;;2.05;0.60;;;7.80;56.90;;;;;;4865203;29;20036;-62
2021/04/07 04:49:59;;;;;;;2.42;0.55;;;7.30;58.20;;;;;;4882190;29;20068;-62
2021/04/07 04:52:25;;;;;;;2.20;0.57;;;6.90;59.50;;;;;;4882333;29;20490;-62
2021/04/07 04:54:51;;;;;;;2.50;1.02;;;6.50;60.80;;;;;;4882941;29;20936;-64
2021/04/07 04:57:17;;;;;;;2.55;0.70;;;6.20;61.70;;;;;;4865951;29;20052;-62
2021/04/07 04:59:43;;;;;;;3.67;1.10;;;6.00;62.90;;;;;;4864267;29;20146;-64
2021/04/07 05:02:09;;;;;;;3.70;0.50;;;5.80;63.70;;;;;;4881826;29;20092;-64
2021/04/07 05:04:35;;;;;;;3.60;0.60;;;5.60;64.50;;;;;;4865946;29;20064;-64
2021/04/07 05:07:01;;;;;;;3.17;0.50;;;5.40;65.20;;;;;;4865933;29;20056;-64
2021/04/07 05:09:27;;;;;;;3.55;0.82;;;5.30;65.70;;;;;;4881459;29;20141;-65
2021/04/07 05:11:54;;;;;;;3.97;1.02;;;5.20;66.00;;;;;;4866288;29;20049;-64
2021/04/07 05:14:20;;;;;;;2.65;0.63;;;5.10;66.70;;;;;;4884107;29;20044;-64
2021/04/07 05:16:45;;;;;;;2.90;0.85;;;5.00;67.10;;;;;;4884537;29;20051;-64
2021/04/07 05:19:12;;;;;;;2.65;0.90;;;5.00;67.50;;;;;;4886194;29;20040;-65
2021/04/07 05:21:37;;;;;;;4.57;0.75;;;5.00;67.90;;;;;;4884061;29;20049;-64
2021/04/07 05:24:04;;;;;;;1.88;0.50;;;5.00;67.80;;;;;;4854425;29;20045;-64
2021/04/07 05:26:30;;;;;;;2.22;0.50;;;5.00;68.30;;;;;;4885717;29;20552;-64
2021/04/07 05:28:56;;;;;;;5.55;0.85;;;5.10;68.30;;;;;;4884706;29;20049;-64
2021/04/07 05:31:22;;;;;;;1.77;0.77;;;5.10;68.50;;;;;;4885959;29;20049;-64
2021/04/07 05:33:48;;;;;;;2.58;0.77;;;5.10;68.70;;;;;;4886631;29;20056;-64
2021/04/07 05:36:15;;;;;;;2.85;0.80;;;5.00;68.60;;;;;;4883526;29;20458;-65
2021/04/07 05:38:42;;;;;;;2.22;0.60;;;5.00;69.20;;;;;;4886000;29;20401;-64
2021/04/07 05:41:09;;;;;;;3.28;0.90;;;5.00;68.90;;;;;;4884874;29;20041;-64
2021/04/07 05:43:37;;;;;;;2.20;0.80;;;5.00;69.00;;;;;;4868074;29;20128;-64
2021/04/07 05:46:04;;;;;;;2.80;1.23;;;5.10;69.10;;;;;;4869308;29;20041;-64
2021/04/07 05:48:30;;;;;;;2.97;0.90;;;5.00;69.10;;;;;;4884935;29;20096;-64
2021/04/07 05:50:56;;;;;;;2.38;0.60;;;5.10;69.20;;;;;;4885894;29;20036;-64
2021/04/07 05:53:23;;;;;;;3.65;0.80;;;5.20;69.40;;;;;;4885048;29;20178;-64
2021/04/07 05:55:51;;;;;;;2.92;1.70;;;5.20;69.00;;;;;;4869555;29;20124;-64
2021/04/07 05:58:18;;;;;;;4.28;1.00;;;5.20;69.00;;;;;;4885993;29;20426;-65
2021/04/07 06:00:46;;;;;;;2.88;0.80;;;5.20;68.90;;;;;;4870646;29;20037;-65
2021/04/07 06:03:12;;;;;;;2.45;0.70;;;5.20;69.00;;;;;;4885407;29;20068;-64
2021/04/07 06:05:40;;;;;;;2.40;0.90;;;5.30;69.30;;;;;;4885997;29;20049;-65
2021/04/07 06:08:07;;;;;;;4.70;1.30;;;5.40;69.30;;;;;;4885193;29;20056;-65
2021/04/07 06:10:35;;;;;;;2.63;0.95;;;5.50;69.20;;;;;;4884868;29;20489;-65
2021/04/07 06:13:01;;;;;;;3.65;1.17;;;5.70;69.30;;;;;;4885279;29;20044;-65
2021/04/07 06:15:28;;;;;;;2.67;0.90;;;6.00;68.90;;;;;;4869546;29;20240;-65
2021/04/07 06:18:02;;;;;;;2.58;0.90;;;6.20;68.80;;;;;;4884968;29;20698;-65
2021/04/07 06:20:30;;;;;;;2.47;1.33;;;6.30;67.50;;;;;;4885296;29;20410;-65
2021/04/07 06:22:57;;;;;;;3.45;1.10;;;6.30;67.00;;;;;;4884126;29;20059;-65
2021/04/07 06:25:23;;;;;;;2.28;1.10;;;6.40;67.00;;;;;;4867827;29;20068;-65
2021/04/07 06:27:54;;;;;;;3.13;1.15;;;6.50;67.20;;;;;;4887334;29;20048;-65
2021/04/07 06:30:24;;;;;;;2.95;1.20;;;6.70;67.30;;;;;;4885004;29;20033;-65
2021/04/07 06:32:50;;;;;;;8.55;1.52;;;6.60;66.90;;;;;;4884583;29;20044;-65
2021/04/07 06:35:16;;;;;;;5.07;1.70;;;6.60;66.80;;;;;;4884580;29;20083;-64
2021/04/07 06:37:42;;;;;;;2.53;1.00;;;6.70;66.90;;;;;;4853628;29;20123;-64
2021/04/07 06:40:08;;;;;;;5.65;1.58;;;6.70;67.00;;;;;;4884499;29;20120;-65
2021/04/07 06:42:34;;;;;;;4.20;1.35;;;6.80;66.80;;;;;;4885172;29;20037;-65
2021/04/07 06:45:00;;;;;;;6.35;1.40;;;6.80;66.60;;;;;;4882995;29;20039;-64
2021/04/07 06:47:27;;;;;;;4.88;1.70;;;6.80;66.60;;;;;;4866782;29;20048;-64
2021/04/07 06:49:54;;;;;;;1.98;0.98;;;6.80;67.00;;;;;;4884005;29;20059;-63
2021/04/07 06:52:23;;;;;;;3.25;1.00;;;6.80;67.10;;;;;;4883313;29;20052;-64
2021/04/07 06:54:53;;;;;;;3.50;1.27;;;7.10;67.10;;;;;;4884731;29;20630;-63
2021/04/07 06:57:20;;;;;;;3.78;1.30;;;7.40;66.50;;;;;;4884911;29;20044;-64
2021/04/07 06:59:48;;;;;;;3.65;1.10;;;7.60;65.60;;;;;;4885153;29;21284;-62
2021/04/07 07:02:15;;;;;;;3.25;1.10;;;7.80;65.00;;;;;;4885334;29;20405;-63
2021/04/07 07:04:40;;;;;;;9.13;2.08;;;8.00;64.60;;;;;;4884858;29;20103;-63
2021/04/07 07:07:07;;;;;;;6.03;1.40;;;8.40;64.30;;;;;;4867021;29;20048;-64
2021/04/07 07:09:34;;;;;;;3.85;1.40;;;8.70;63.40;;;;;;4868111;29;20033;-64
2021/04/07 07:12:00;;;;;;;8.45;1.50;;;9.00;62.80;;;;;;4883859;29;20051;-63
2021/04/07 07:14:27;;;;;;;9.88;1.45;;;9.30;65.70;;;;;;4884005;29;20032;-63
2021/04/07 07:16:54;;;;;;;7.20;1.00;;;10.50;69.50;;;;;;4884574;29;20052;-62
2021/04/07 07:19:25;;;;;;;3.60;1.30;;;11.80;68.20;;;;;;4884479;29;20048;-64
2021/04/07 07:22:06;;;;;;;4.70;1.50;;;13.00;63.80;;;;;;4884717;29;20095;-65
2021/04/07 07:24:39;;;;;;;7.22;1.42;;;13.60;61.20;;;;;;4864949;29;20052;-63
2021/04/07 07:27:09;;;;;;;7.50;1.42;;;13.90;59.70;;;;;;4882864;29;20076;-63
2021/04/07 07:29:38;;;;;;;3.05;0.88;;;14.20;58.70;;;;;;4883525;29;20127;-64
2021/04/07 07:32:10;;;;;;;3.30;1.17;;;14.40;57.90;;;;;;4882974;29;20187;-63
2021/04/07 07:34:36;;;;;;;4.80;1.35;;;14.50;57.10;;;;;;4883027;29;20481;-64
2021/04/07 07:37:04;;;;;;;6.32;1.67;;;14.70;56.60;;;;;;4884018;29;20072;-64
2021/04/07 07:39:35;;;;;;;3.38;1.10;;;14.80;56.20;;;;;;4883815;29;20045;-64
2021/04/07 07:42:10;;;;;;;6.15;2.15;;;14.90;55.90;;;;;;4883992;29;20041;-64
2021/04/07 07:44:39;;;;;;;6.25;1.20;;;14.90;55.10;;;;;;4883625;29;20049;-65
2021/04/07 07:47:23;;;;;;;4.40;1.15;;;15.00;55.30;;;;;;4882463;29;20049;-65
2021/04/07 07:50:06;;;;;;;3.05;1.00;;;15.00;55.10;;;;;;4884325;29;20103;-64
2021/04/07 07:52:34;;;;;;;3.35;0.82;;;15.00;56.20;;;;;;4883702;29;20466;-63
2021/04/07 07:55:12;;;;;;;5.30;1.25;;;15.20;56.60;;;;;;4883385;29;20033;-64
2021/04/07 07:57:37;;;;;;;6.68;1.25;;;15.30;56.70;;;;;;4882599;29;20048;-64
2021/04/07 08:00:09;;;;;;;4.05;1.33;;;15.50;56.60;;;;;;4886134;29;20049;-64
2021/04/07 08:02:37;;;;;;;7.25;1.50;;;15.60;56.50;;;;;;4864814;29;20041;-65
2021/04/07 08:05:14;;;;;;;4.38;1.30;;;15.70;56.30;;;;;;4883437;29;20046;-64
2021/04/07 08:07:40;;;;;;;4.03;1.50;;;15.80;56.00;;;;;;4883041;29;20059;-68
2021/04/07 08:10:06;;;;;;;3.28;1.40;;;15.80;55.90;;;;;;4885213;29;20040;-68
2021/04/07 08:12:33;;;;;;;2.95;1.25;;;15.80;55.40;;;;;;4882156;29;20041;-68
2021/04/07 08:15:00;;;;;;;3.72;1.20;;;15.80;55.40;;;;;;4883538;29;20033;-67
2021/04/07 08:17:29;;;;;;;7.07;1.60;;;15.50;56.20;;;;;;4883971;29;20052;-67
2021/04/07 08:19:56;;;;;;;3.72;1.30;;;15.40;55.80;;;;;;4883512;29;20048;-68
2021/04/07 08:22:25;;;;;;;4.93;2.13;;;15.50;55.60;;;;;;4881581;29;20115;-67
2021/04/07 08:24:53;;;;;;;8.40;1.58;;;15.50;55.40;;;;;;4882515;29;20041;-67
2021/04/07 08:27:20;;;;;;;3.17;1.23;;;15.20;53.50;;;;;;4865952;29;20512;-67
2021/04/07 08:29:47;;;;;;;4.80;1.20;;;14.90;54.30;;;;;;4882309;29;20041;-66
2021/04/07 08:32:17;;;;;;;4.57;1.38;;;14.60;55.10;;;;;;4882490;29;20037;-66
2021/04/07 08:34:44;;;;;;;4.55;1.15;;;14.50;56.20;;;;;;4884184;29;20048;-66
2021/04/07 08:37:15;;;;;;;4.32;1.17;;;14.80;56.70;;;;;;4883417;29;20041;-67
2021/04/07 08:39:43;;;;;;;3.80;1.60;;;15.20;55.80;;;;;;4882153;29;20048;-66
2021/04/07 08:42:13;;;;;;;5.05;1.25;;;15.70;55.00;;;;;;4883427;29;20047;-66
2021/04/07 08:44:46;;;;;;;5.13;1.10;;;16.10;54.30;;;;;;4866109;29;20040;-68
2021/04/07 08:47:31;;;;;;;3.72;0.90;;;16.30;53.70;;;;;;4886457;29;20072;-68
2021/04/07 08:50:04;;;;;;;4.57;1.30;;;16.40;52.90;;;;;;4886230;29;20037;-68
2021/04/07 08:52:30;;;;;;;3.47;1.08;;;16.40;53.40;;;;;;4885457;29;20040;-67
2021/04/07 08:54:59;;;;;;;3.35;1.15;;;16.30;53.40;;;;;;4887590;29;20386;-67
2021/04/07 08:57:33;;;;;;;4.18;0.88;;;16.40;53.60;;;;;;4868683;29;20127;-66
2021/04/07 09:00:02;;;;;;;3.63;1.13;;;16.40;53.10;;;;;;4868661;29;20037;-67
2021/04/07 09:02:29;;;;;;;3.45;1.20;;;16.50;52.10;;;;;;4885349;29;20049;-67
2021/04/07 09:05:04;;;;;;;5.47;1.60;;;16.50;52.60;;;;;;4886586;29;20053;-67
2021/04/07 09:07:41;;;;;;;5.68;1.67;;;16.50;53.10;;;;;;4885672;29;20040;-66
2021/04/07 09:10:09;;;;;;;5.72;1.38;;;16.30;53.10;;;;;;4868598;29;20453;-66
2021/04/07 09:12:35;;;;;;;6.18;1.65;;;16.10;53.10;;;;;;4887043;29;20050;-67
2021/04/07 09:15:30;;;;;;;6.40;1.80;;;15.90;53.00;;;;;;4871178;29;20037;-65
2021/04/07 09:17:57;;;;;;;12.98;3.15;;;15.80;51.90;;;;;;4884724;29;20100;-66
2021/04/07 09:20:38;;;;;;;9.90;2.47;;;15.30;51.30;;;;;;4884690;29;20482;-66
2021/04/07 09:23:13;;;;;;;8.18;1.70;;;14.70;51.00;;;;;;4886161;29;20091;-66
2021/04/07 09:25:45;;;;;;;2.92;1.20;;;13.90;51.60;;;;;;4886682;29;20044;-66
2021/04/07 09:28:11;;;;;;;8.73;1.85;;;13.50;54.30;;;;;;4885279;29;20489;-66
2021/04/07 09:30:46;;;;;;;9.45;1.92;;;13.50;55.80;;;;;;4886164;29;20515;-66
2021/04/07 09:33:14;;;;;;;9.88;2.40;;;13.80;55.50;;;;;;4885814;29;20033;-65
2021/04/07 09:35:58;;;;;;;4.03;1.52;;;13.80;54.10;;;;;;4885007;29;20136;-65
2021/04/07 09:38:29;;;;;;;12.25;2.38;;;14.00;54.70;;;;;;4885075;29;20037;-65
2021/04/07 09:41:07;;;;;;;20.58;3.65;;;14.10;53.90;;;;;;4885985;29;20477;-66
2021/04/07 09:43:33;;;;;;;8.93;1.83;;;14.40;53.20;;;;;;4868760;29;20036;-66
2021/04/07 09:45:59;;;;;;;6.15;1.80;;;14.30;53.70;;;;;;4883634;29;20057;-66
2021/04/07 09:49:03;;;;;;;7.28;1.67;;;14.30;54.00;;;;;;4869151;29;20044;-66
2021/04/07 09:51:32;;;;;;;5.88;1.40;;;14.40;54.20;;;;;;4814976;29;20050;-66
2021/04/07 09:54:23;;;;;;;9.15;2.17;;;14.50;54.20;;;;;;4814931;29;20558;-66
2021/04/07 09:57:02;;;;;;;5.88;2.30;;;14.60;52.30;;;;;;4859819;29;20093;-67
2021/04/07 09:59:38;;;;;;;13.70;2.65;;;14.30;52.70;;;;;;4884747;29;20051;-67
2021/04/07 10:02:09;;;;;;;11.15;2.72;;;14.10;53.20;;;;;;4885590;29;20036;-66
2021/04/07 10:04:43;;;;;;;9.57;1.98;;;14.20;53.30;;;;;;4883257;29;20068;-66
2021/04/07 10:07:10;;;;;;;6.38;1.92;;;14.20;53.80;;;;;;4884593;29;20053;-65
2021/04/07 10:09:37;;;;;;;6.82;1.73;;;14.40;54.40;;;;;;4868354;29;20041;-66
2021/04/07 10:12:05;;;;;;;11.15;2.33;;;14.80;54.10;;;;;;4883779;29;20117;-68
2021/04/07 10:14:31;;;;;;;9.77;2.40;;;15.20;53.10;;;;;;4883523;29;20052;-66
2021/04/07 10:16:57;;;;;;;11.95;2.63;;;15.20;52.20;;;;;;4886315;29;20056;-68
2021/04/07 10:19:28;;;;;;;8.13;1.85;;;15.10;52.50;;;;;;4854399;29;20036;-67
2021/04/07 10:21:59;;;;;;;8.20;2.20;;;15.40;52.90;;;;;;4883483;29;20041;-66
2021/04/07 10:24:26;;;;;;;17.00;3.47;;;15.70;52.50;;;;;;4886406;29;20045;-66
2021/04/07 10:26:52;;;;;;;11.57;3.03;;;15.90;50.20;;;;;;4885570;29;20071;-66
2021/04/07 10:29:23;;;;;;;10.93;2.88;;;15.90;50.40;;;;;;4866902;29;20409;-65
2021/04/07 10:31:58;;;;;;;9.18;2.60;;;15.90;50.40;;;;;;4866773;29;20041;-65
2021/04/07 10:34:35;;;;;;;13.85;2.97;;;16.20;50.90;;;;;;4882966;29;20047;-65
2021/04/07 10:37:02;;;;;;;10.25;2.72;;;16.20;49.10;;;;;;4884429;29;20041;-63
2021/04/07 10:39:37;;;;;;;11.82;3.45;;;15.50;47.40;;;;;;4868078;29;20437;-66
2021/04/07 10:42:03;;;;;;;10.75;3.10;;;15.00;47.60;;;;;;4884070;29;20650;-66
2021/04/07 10:44:32;;;;;;;13.38;2.50;;;14.70;48.80;;;;;;4867689;29;20115;-67
2021/04/07 10:46:58;;;;;;;9.65;2.13;;;14.70;50.20;;;;;;4883743;29;20520;-65
2021/04/07 10:49:25;;;;;;;10.90;3.13;;;14.60;51.10;;;;;;4884359;29;20044;-64
2021/04/07 10:52:06;;;;;;;15.77;3.13;;;14.50;51.70;;;;;;4883720;29;20051;-67
2021/04/07 10:54:34;;;;;;;9.18;2.45;;;14.30;50.90;;;;;;4884042;29;20449;-64
2021/04/07 10:57:07;;;;;;;8.02;1.90;;;14.00;50.60;;;;;;4884244;29;20120;-65
2021/04/07 10:59:34;;;;;;;10.65;3.17;;;13.70;50.50;;;;;;4884651;29;20056;-68
2021/04/07 11:02:12;;;;;;;11.57;2.55;;;13.70;51.70;;;;;;4884129;29;20064;-68
2021/04/07 11:04:39;;;;;;;14.75;2.78;;;13.80;51.80;;;;;;4885841;29;20048;-68
2021/04/07 11:07:06;;;;;;;12.23;2.80;;;13.70;51.40;;;;;;4866329;29;20056;-67
2021/04/07 11:09:35;;;;;;;13.05;2.70;;;13.40;52.50;;;;;;4883948;29;20127;-67
2021/04/07 11:12:04;;;;;;;8.55;2.40;;;13.40;51.00;;;;;;4885016;29;20040;-66
2021/04/07 11:14:33;;;;;;;11.48;2.67;;;13.40;52.00;;;;;;4868659;29;20044;-65
2021/04/07 11:17:01;;;;;;;11.07;2.42;;;13.50;52.20;;;;;;4884398;29;20049;-65
2021/04/07 11:19:38;;;;;;;14.65;2.72;;;13.60;50.10;;;;;;4883585;29;20119;-65
2021/04/07 11:22:05;;;;;;;15.38;2.67;;;13.60;48.90;;;;;;4883527;29;20037;-65
2021/04/07 11:24:32;;;;;;;8.25;2.53;;;13.50;51.10;;;;;;4866358;29;20059;-65
2021/04/07 11:26:58;;;;;;;7.97;2.50;;;13.50;50.60;;;;;;4883562;29;20072;-65
2021/04/07 11:29:24;;;;;;;9.80;2.78;;;13.60;52.10;;;;;;4881770;29;20069;-65
2021/04/07 11:31:52;;;;;;;7.65;2.10;;;13.70;52.30;;;;;;4883712;29;20037;-65
2021/04/07 11:34:23;;;;;;;11.27;2.20;;;13.90;52.90;;;;;;4883240;29;20374;-66
2021/04/07 11:39:24;;;;;;;9.18;2.47;;;14.20;50.40;;;;;;4883358;29;20120;-65
2021/04/07 11:42:03;;;;;;;7.90;2.30;;;14.10;50.80;;;;;;4882464;29;20141;-66
2021/04/07 11:44:30;;;;;;;9.15;2.90;;;14.10;51.70;;;;;;4883113;29;20137;-65
2021/04/07 11:47:02;;;;;;;10.52;2.65;;;14.10;51.90;;;;;;4882575;29;20049;-65
2021/04/07 11:49:28;;;;;;;7.68;2.22;;;14.00;51.60;;;;;;4883833;29;20478;-64
2021/04/07 11:51:54;;;;;;;8.60;2.25;;;13.80;50.40;;;;;;4883062;29;20047;-64
2021/04/07 11:54:21;;;;;;;11.27;2.60;;;13.50;50.30;;;;;;4856062;29;20116;-64
2021/04/07 11:56:47;;;;;;;12.52;2.35;;;13.60;52.10;;;;;;4866375;29;20048;-64
2021/04/07 11:59:15;;;;;;;7.93;1.70;;;13.80;51.30;;;;;;4882924;29;20056;-65
2021/04/07 12:01:43;;;;;;;7.18;1.85;;;13.90;49.80;;;;;;4882621;29;20044;-65
2021/04/07 12:04:09;;;;;;;7.72;1.80;;;14.00;50.80;;;;;;4882708;29;20041;-65
2021/04/07 12:06:36;;;;;;;7.13;2.00;;;14.10;51.60;;;;;;4882055;29;20064;-65
2021/04/07 12:09:02;;;;;;;7.28;1.67;;;14.40;51.60;;;;;;4883588;29;20047;-66
2021/04/07 12:11:28;;;;;;;7.03;1.77;;;14.80;49.30;;;;;;4884304;29;20036;-65
2021/04/07 12:13:54;;;;;;;12.43;2.00;;;15.10;49.50;;;;;;4883056;29;20073;-65
2021/04/07 12:16:21;;;;;;;7.63;1.85;;;15.50;49.90;;;;;;4865325;29;20138;-65
2021/04/07 12:18:47;;;;;;;7.35;2.17;;;15.60;49.10;;;;;;4882783;29;20068;-65
2021/04/07 12:21:14;;;;;;;9.23;1.67;;;15.60;48.00;;;;;;4886810;29;20477;-65
2021/04/07 12:23:40;;;;;;;5.88;1.90;;;15.60;47.70;;;;;;4839446;29;20060;-65
2021/04/07 12:26:05;;;;;;;9.73;2.42;;;15.30;47.00;;;;;;4886288;29;20037;-65
2021/04/07 12:28:31;;;;;;;6.63;1.88;;;14.90;46.30;;;;;;4869629;29;20475;-66
2021/04/07 12:30:57;;;;;;;9.40;1.63;;;14.60;47.00;;;;;;4887696;29;20109;-65
2021/04/07 12:33:29;;;;;;;10.75;1.73;;;14.40;47.90;;;;;;4869266;29;20074;-65
2021/04/07 12:35:57;;;;;;;6.80;1.80;;;14.20;48.90;;;;;;4888256;29;20116;-64
2021/04/07 12:38:25;;;;;;;12.60;2.30;;;14.10;49.20;;;;;;4868482;29;20489;-68
2021/04/07 12:40:54;;;;;;;14.30;2.80;;;13.90;48.10;;;;;;4886825;29;20047;-68
2021/04/07 12:43:19;;;;;;;7.97;2.30;;;13.80;48.00;;;;;;4868796;29;20098;-69
2021/04/07 12:45:45;;;;;;;9.32;2.30;;;13.50;49.40;;;;;;4887148;29;20491;-68
2021/04/07 12:48:11;;;;;;;7.43;1.73;;;13.40;50.00;;;;;;4871616;29;20044;-69
2021/04/07 12:50:37;;;;;;;7.72;1.48;;;13.40;51.50;;;;;;4887454;29;20049;-69
2021/04/07 12:53:04;;;;;;;7.85;1.70;;;13.40;52.40;;;;;;4869880;29;20039;-70
2021/04/07 12:55:33;;;;;;;12.82;2.05;;;13.70;52.40;;;;;;4885257;29;20048;-66